createdAt,value
2019-05-14T00:02:22.718Z,1.30
2019-05-14T00:04:53.489Z,1.20
2019-05-14T00:07:24.357Z,1.80
2019-05-14T00:09:55.167Z,1.43
2019-05-14T00:12:25.968Z,1.40
2019-05-14T00:14:56.715Z,1.30
2019-05-14T00:17:27.531Z,1.27
2019-05-14T00:20:07.277Z,1.50
2019-05-14T00:22:31.988Z,1.37
2019-05-14T00:25:02.831Z,1.77
2019-05-14T00:27:33.608Z,2.10
2019-05-14T00:30:04.897Z,1.40
2019-05-14T00:32:35.710Z,1.20
2019-05-14T00:35:06.917Z,1.23
2019-05-14T00:37:37.712Z,1.30
2019-05-14T00:40:08.490Z,1.10
2019-05-14T00:42:41.452Z,1.40
2019-05-14T00:45:12.053Z,1.27
2019-05-14T00:47:42.769Z,1.30
2019-05-14T00:50:13.555Z,1.20
2019-05-14T00:52:46.434Z,1.20
2019-05-14T00:55:16.630Z,1.00
2019-05-14T00:57:47.454Z,1.10
2019-05-14T01:00:18.382Z,1.30
2019-05-14T01:02:51.573Z,1.17
2019-05-14T01:05:21.689Z,1.30
2019-05-14T01:07:52.490Z,1.40
2019-05-14T01:10:23.315Z,1.30
2019-05-14T01:12:54.053Z,1.20
2019-05-14T01:15:24.819Z,1.30
2019-05-14T01:17:55.615Z,1.50
2019-05-14T01:20:27.252Z,1.30
2019-05-14T01:22:58.108Z,1.10
2019-05-14T01:25:31.548Z,1.30
2019-05-14T01:28:02.353Z,1.30
2019-05-14T01:30:33.226Z,1.30
2019-05-14T01:33:04.003Z,1.20
2019-05-14T01:35:34.830Z,1.43
2019-05-14T01:38:05.636Z,1.20
2019-05-14T01:40:36.383Z,1.57
2019-05-14T01:43:07.140Z,1.33
2019-05-14T01:45:38.345Z,1.20
2019-05-14T01:48:09.083Z,1.30
2019-05-14T01:50:41.382Z,1.53
2019-05-14T01:53:12.344Z,1.10
2019-05-14T01:55:43.150Z,1.43
2019-05-14T01:58:13.907Z,1.37
2019-05-14T02:00:44.763Z,1.33
2019-05-14T02:03:15.541Z,1.43
2019-05-14T02:05:46.346Z,1.20
2019-05-14T02:08:17.082Z,1.40
2019-05-14T02:10:47.877Z,1.33
2019-05-14T02:13:18.632Z,1.17
2019-05-14T02:15:51.809Z,1.40
2019-05-14T02:18:21.901Z,1.57
2019-05-14T02:20:52.723Z,1.47
2019-05-14T02:23:23.451Z,1.10
2019-05-14T02:25:54.248Z,1.20
2019-05-14T02:28:25.032Z,1.00
2019-05-14T02:30:59.158Z,1.40
2019-05-14T02:33:30.563Z,1.23
2019-05-14T02:36:00.588Z,1.27
2019-05-14T02:38:31.294Z,1.43
2019-05-14T02:41:02.055Z,1.17
2019-05-14T02:43:32.781Z,1.60
2019-05-14T02:46:12.064Z,1.20
2019-05-14T02:48:39.906Z,1.47
2019-05-14T02:51:10.527Z,1.40
2019-05-14T02:53:41.159Z,1.57
2019-05-14T02:56:11.957Z,1.20
2019-05-14T02:58:42.761Z,1.30
2019-05-14T03:01:13.537Z,1.40
2019-05-14T03:03:44.284Z,1.60
2019-05-14T03:06:15.030Z,1.30
2019-05-14T03:08:45.826Z,1.43
2019-05-14T03:11:19.822Z,1.50
2019-05-14T03:13:49.649Z,1.20
2019-05-14T03:16:29.278Z,1.57
2019-05-14T03:18:52.901Z,1.47
2019-05-14T03:21:23.689Z,1.33
2019-05-14T03:23:54.415Z,1.40
2019-05-14T03:26:25.213Z,1.40
2019-05-14T03:28:55.968Z,1.40
2019-05-14T03:31:32.290Z,1.53
2019-05-14T03:34:02.796Z,1.50
2019-05-14T03:36:34.764Z,1.30
2019-05-14T03:39:04.672Z,1.40
2019-05-14T03:41:35.534Z,1.60
2019-05-14T03:44:09.614Z,1.30
2019-05-14T03:46:49.618Z,1.30
2019-05-14T03:49:11.041Z,1.40
2019-05-14T03:51:41.847Z,1.30
2019-05-14T03:54:13.126Z,1.50
2019-05-14T03:56:44.398Z,1.30
2019-05-14T03:59:15.184Z,1.60
2019-05-14T04:01:50.718Z,1.20
2019-05-14T04:04:19.800Z,1.37
2019-05-14T04:06:52.890Z,1.87
2019-05-14T04:09:24.787Z,1.60
2019-05-14T04:11:59.469Z,1.70
2019-05-14T04:14:32.485Z,1.30
2019-05-14T04:17:11.055Z,1.50
2019-05-14T04:19:39.563Z,1.40
2019-05-14T04:22:13.696Z,1.50
2019-05-14T04:24:49.400Z,1.93
2019-05-14T04:27:20.263Z,1.70
2019-05-14T04:29:54.150Z,1.40
2019-05-14T04:32:29.210Z,1.40
2019-05-14T04:34:59.783Z,1.53
2019-05-14T04:37:30.898Z,1.40
2019-05-14T04:40:01.714Z,1.60
2019-05-14T04:42:32.531Z,1.17
2019-05-14T04:45:05.709Z,1.43
2019-05-14T04:47:37.402Z,1.70
2019-05-14T04:50:10.551Z,1.40
2019-05-14T04:52:41.000Z,1.50
2019-05-14T04:55:12.109Z,1.40
2019-05-14T04:57:42.920Z,1.70
2019-05-14T05:00:13.660Z,1.70
2019-05-14T05:02:44.495Z,1.70
2019-05-14T05:05:15.355Z,1.53
2019-05-14T05:07:48.933Z,1.67
2019-05-14T05:10:19.360Z,2.07
2019-05-14T05:12:50.366Z,1.60
2019-05-14T05:15:21.103Z,1.50
2019-05-14T05:17:52.979Z,1.60
2019-05-14T05:20:24.110Z,1.50
2019-05-14T05:22:54.921Z,1.60
2019-05-14T05:25:25.639Z,1.37
2019-05-14T05:27:56.638Z,2.13
2019-05-14T05:30:29.438Z,1.57
2019-05-14T05:33:00.327Z,1.77
2019-05-14T05:35:31.024Z,2.20
2019-05-14T05:38:01.822Z,1.50
2019-05-14T05:40:32.567Z,1.80
2019-05-14T05:43:03.387Z,1.83
2019-05-14T05:45:34.118Z,1.60
2019-05-14T05:48:04.936Z,1.70
2019-05-14T05:50:35.642Z,1.90
2019-05-14T05:53:08.864Z,2.10
2019-05-14T05:55:39.546Z,1.80
2019-05-14T05:58:10.322Z,1.93
2019-05-14T06:00:42.361Z,2.70
2019-05-14T06:03:13.151Z,1.83
2019-05-14T06:05:43.961Z,2.50
2019-05-14T06:08:14.777Z,2.50
2019-05-14T06:10:45.604Z,2.37
2019-05-14T06:13:18.265Z,2.80
2019-05-14T06:15:52.161Z,2.00
2019-05-14T06:18:22.156Z,1.90
2019-05-14T06:20:53.210Z,2.03
2019-05-14T06:23:23.988Z,2.13
2019-05-14T06:25:54.802Z,1.90
2019-05-14T06:28:32.213Z,1.97
2019-05-14T06:30:58.987Z,1.90
2019-05-14T06:33:29.893Z,2.20
2019-05-14T06:36:00.670Z,2.03
2019-05-14T06:38:31.399Z,2.30
2019-05-14T06:41:02.191Z,2.20
2019-05-14T06:43:32.907Z,2.10
2019-05-14T06:46:03.694Z,2.50
2019-05-14T06:48:34.982Z,2.20
2019-05-14T06:51:05.900Z,2.53
2019-05-14T06:53:38.953Z,2.07
2019-05-14T06:56:08.995Z,2.17
2019-05-14T06:58:39.676Z,1.87
2019-05-14T07:01:10.472Z,2.47
2019-05-14T07:03:41.213Z,2.53
2019-05-14T07:06:11.975Z,2.30
2019-05-14T07:08:42.701Z,2.40
2019-05-14T07:11:13.438Z,2.53
2019-05-14T07:13:44.134Z,2.37
2019-05-14T07:16:14.920Z,2.67
2019-05-14T07:18:50.712Z,2.27
2019-05-14T07:21:18.679Z,1.90
2019-05-14T07:23:49.602Z,2.70
2019-05-14T07:26:20.400Z,2.60
2019-05-14T07:28:51.133Z,2.40
2019-05-14T07:31:22.007Z,2.20
2019-05-14T07:33:52.736Z,2.30
2019-05-14T07:36:23.512Z,2.00
2019-05-14T07:38:56.477Z,2.10
2019-05-14T07:41:28.503Z,2.53
2019-05-14T07:43:59.011Z,2.40
2019-05-14T07:46:29.797Z,2.20
2019-05-14T07:49:08.130Z,2.50
2019-05-14T07:51:32.961Z,2.10
2019-05-14T07:54:03.747Z,2.50
2019-05-14T07:56:34.541Z,2.13
2019-05-14T07:59:05.238Z,2.23
2019-05-14T08:01:36.035Z,2.43
2019-05-14T08:04:11.252Z,2.30
2019-05-14T08:06:39.511Z,2.40
2019-05-14T08:09:10.525Z,1.87
2019-05-14T08:11:41.340Z,2.40
2019-05-14T08:14:12.127Z,2.10
2019-05-14T08:16:42.963Z,2.53
2019-05-14T08:19:24.413Z,2.30
2019-05-14T08:21:48.085Z,2.20
2019-05-14T08:24:21.758Z,2.33
2019-05-14T08:26:50.929Z,2.00
2019-05-14T08:29:21.675Z,2.23
2019-05-14T08:31:52.515Z,2.10
2019-05-14T08:34:23.238Z,1.90
2019-05-14T08:36:54.024Z,2.30
2019-05-14T08:39:24.882Z,2.20
2019-05-14T08:42:01.331Z,2.00
2019-05-14T08:44:29.391Z,1.57
2019-05-14T08:47:00.281Z,2.30
2019-05-14T08:49:41.955Z,2.20
2019-05-14T08:52:03.456Z,1.60
2019-05-14T08:54:34.191Z,2.03
2019-05-14T08:57:05.087Z,1.77
2019-05-14T08:59:36.052Z,2.00
2019-05-14T09:02:10.245Z,2.07
2019-05-14T09:04:42.813Z,2.07
2019-05-14T09:07:11.602Z,2.07
2019-05-14T09:09:42.339Z,2.17
2019-05-14T09:12:13.096Z,1.93
2019-05-14T09:14:44.142Z,1.63
2019-05-14T09:17:15.031Z,1.87
2019-05-14T09:20:00.944Z,2.00
2019-05-14T09:22:18.658Z,2.00
2019-05-14T09:24:49.453Z,1.93
2019-05-14T09:27:20.182Z,1.70
2019-05-14T09:29:50.937Z,1.90
2019-05-14T09:32:21.646Z,1.80
2019-05-14T09:34:52.355Z,2.03
2019-05-14T09:37:23.110Z,2.17
2019-05-14T09:39:53.866Z,2.30
2019-05-14T09:42:24.612Z,1.80
2019-05-14T09:44:55.364Z,1.93
2019-05-14T09:47:28.108Z,1.90
2019-05-14T09:50:15.082Z,1.67
2019-05-14T09:52:30.929Z,1.70
2019-05-14T09:55:01.675Z,1.90
2019-05-14T09:57:32.381Z,1.60
2019-05-14T10:00:03.146Z,1.70
2019-05-14T10:02:33.864Z,1.50
2019-05-14T10:05:04.871Z,1.80
2019-05-14T10:07:35.560Z,2.10
2019-05-14T10:10:06.663Z,1.40
2019-05-14T10:12:44.763Z,1.40
2019-05-14T10:15:10.209Z,1.40
2019-05-14T10:17:40.963Z,1.70
2019-05-14T10:20:11.889Z,1.57
2019-05-14T10:22:42.615Z,1.30
2019-05-14T10:25:13.422Z,1.40
2019-05-14T10:27:44.220Z,1.90
2019-05-14T10:30:15.316Z,1.60
2019-05-14T10:32:48.988Z,1.90
2019-05-14T10:35:19.215Z,1.50
2019-05-14T10:37:54.180Z,1.73
2019-05-14T10:40:22.701Z,1.40
2019-05-14T10:42:53.530Z,1.70
2019-05-14T10:45:24.331Z,1.20
2019-05-14T10:47:55.090Z,1.50
2019-05-14T10:50:25.836Z,1.33
2019-05-14T10:52:59.159Z,1.50
2019-05-14T10:55:29.048Z,1.60
2019-05-14T10:58:00.130Z,1.60
2019-05-14T11:00:31.242Z,1.53
2019-05-14T11:03:02.009Z,1.30
2019-05-14T11:05:32.844Z,1.63
2019-05-14T11:08:03.612Z,1.67
2019-05-14T11:10:34.422Z,1.60
2019-05-14T11:13:05.243Z,1.50
2019-05-14T11:15:36.059Z,1.37
2019-05-14T11:18:08.633Z,1.50
2019-05-14T11:20:42.142Z,1.80
2019-05-14T11:23:11.629Z,1.50
2019-05-14T11:25:42.456Z,1.50
2019-05-14T11:28:13.251Z,1.27
2019-05-14T11:30:44.080Z,1.90
2019-05-14T11:33:14.875Z,1.37
2019-05-14T11:35:45.700Z,1.57
2019-05-14T11:38:28.685Z,1.30
2019-05-14T11:40:49.518Z,1.67
2019-05-14T11:43:20.507Z,1.50
2019-05-14T11:45:51.336Z,1.33
2019-05-14T11:48:22.096Z,1.40
2019-05-14T11:50:52.928Z,1.40
2019-05-14T11:53:23.905Z,1.73
2019-05-14T11:55:54.713Z,1.50
2019-05-14T11:58:25.442Z,1.20
2019-05-14T12:00:58.420Z,1.67
2019-05-14T12:03:28.801Z,1.40
2019-05-14T12:05:59.596Z,1.63
2019-05-14T12:08:30.342Z,1.63
2019-05-14T12:11:01.191Z,1.13
2019-05-14T12:13:32.838Z,1.40
2019-05-14T12:16:04.011Z,1.37
2019-05-14T12:18:34.797Z,1.30
2019-05-14T12:21:05.596Z,1.30
2019-05-14T12:23:36.401Z,1.20
2019-05-14T12:26:09.646Z,1.40
2019-05-14T12:28:39.622Z,1.60
2019-05-14T12:31:10.459Z,1.43
2019-05-14T12:33:41.246Z,1.40
2019-05-14T12:36:12.082Z,1.57
2019-05-14T12:38:42.838Z,1.20
2019-05-14T12:41:13.657Z,1.20
2019-05-14T12:43:44.470Z,1.50
2019-05-14T12:46:15.264Z,1.23
2019-05-14T12:48:46.075Z,1.30
2019-05-14T12:51:18.630Z,1.20
2019-05-14T12:53:49.458Z,1.67
2019-05-14T12:56:20.242Z,1.90
2019-05-14T12:58:51.027Z,1.60
2019-05-14T13:01:21.825Z,1.33
2019-05-14T13:03:52.661Z,1.20
2019-05-14T13:06:29.106Z,1.40
2019-05-14T13:08:59.095Z,1.50
2019-05-14T13:11:29.910Z,1.23
2019-05-14T13:14:00.761Z,1.50
2019-05-14T13:16:31.562Z,1.50
2019-05-14T13:19:02.429Z,2.10
2019-05-14T13:21:33.206Z,1.27
2019-05-14T13:24:04.053Z,1.33
2019-05-14T13:26:34.768Z,1.60
2019-05-14T13:29:10.523Z,1.80
2019-05-14T13:31:38.185Z,1.50
2019-05-14T13:34:09.092Z,1.30
2019-05-14T13:36:44.407Z,1.23
2019-05-14T13:39:12.279Z,1.30
2019-05-14T13:41:43.034Z,1.10
2019-05-14T13:44:21.294Z,1.27
2019-05-14T13:46:48.590Z,1.73
2019-05-14T13:49:19.176Z,0.93
2019-05-14T13:51:49.977Z,1.20
2019-05-14T13:54:20.899Z,1.03
2019-05-14T13:56:52.465Z,1.20
2019-05-14T13:59:23.362Z,1.20
2019-05-14T14:01:54.892Z,1.87
2019-05-14T14:04:25.894Z,1.17
2019-05-14T14:06:59.005Z,1.40
2019-05-14T14:09:31.531Z,1.37
2019-05-14T14:12:01.554Z,1.10
2019-05-14T14:14:32.391Z,1.30
2019-05-14T14:17:03.209Z,1.10
2019-05-14T14:19:34.003Z,0.90
2019-05-14T14:22:05.080Z,1.03
2019-05-14T14:24:38.483Z,1.30
2019-05-14T14:27:09.182Z,1.10
2019-05-14T14:29:40.110Z,1.10
2019-05-14T14:32:11.482Z,1.00
2019-05-14T14:34:42.381Z,1.17
2019-05-14T14:37:13.497Z,1.23
2019-05-14T14:39:44.265Z,1.40
2019-05-14T14:42:15.190Z,1.10
2019-05-14T14:44:48.405Z,1.07
2019-05-14T14:47:19.020Z,1.17
2019-05-14T14:49:51.827Z,1.00
2019-05-14T14:52:22.329Z,1.10
2019-05-14T14:54:53.149Z,1.00
2019-05-14T14:57:23.878Z,1.10
2019-05-14T14:59:56.315Z,1.00
2019-05-14T15:02:28.803Z,1.07
2019-05-14T15:04:59.880Z,1.00
2019-05-14T15:07:30.691Z,1.07
2019-05-14T15:10:01.467Z,2.50
2019-05-14T15:12:35.674Z,0.87
2019-05-14T15:15:05.412Z,1.30
2019-05-14T15:17:38.968Z,1.00
2019-05-14T15:20:10.489Z,0.90
2019-05-14T15:22:41.025Z,1.20
2019-05-14T15:25:12.002Z,1.00
2019-05-14T15:27:42.775Z,1.20
2019-05-14T15:30:13.893Z,1.10
2019-05-14T15:32:44.695Z,1.57
2019-05-14T15:35:15.915Z,1.20
2019-05-14T15:37:48.618Z,1.13
2019-05-14T15:40:22.072Z,1.03
2019-05-14T15:42:51.551Z,1.00
2019-05-14T15:45:22.260Z,1.00
2019-05-14T15:47:53.087Z,1.00
2019-05-14T15:50:23.843Z,1.00
2019-05-14T15:52:54.660Z,1.20
2019-05-14T15:55:25.435Z,1.10
2019-05-14T15:57:58.926Z,1.07
2019-05-14T16:00:29.157Z,1.00
2019-05-14T16:03:00.411Z,0.93
2019-05-14T16:05:32.683Z,1.20
2019-05-14T16:08:03.508Z,1.30
2019-05-14T16:10:34.290Z,1.17
2019-05-14T16:13:05.051Z,1.00
2019-05-14T16:15:36.016Z,1.40
2019-05-14T16:18:14.836Z,1.23
2019-05-14T16:20:39.472Z,1.27
2019-05-14T16:23:11.048Z,1.10
2019-05-14T16:25:42.022Z,1.13
2019-05-14T16:28:12.792Z,0.80
2019-05-14T16:30:43.583Z,1.00
2019-05-14T16:33:14.393Z,1.10
2019-05-14T16:35:45.127Z,0.90
2019-05-14T16:38:15.924Z,1.00
2019-05-14T16:40:48.961Z,1.00
2019-05-14T16:43:19.222Z,0.90
2019-05-14T16:45:49.912Z,1.00
2019-05-14T16:48:20.701Z,0.90
2019-05-14T16:50:51.415Z,0.90
2019-05-14T16:53:22.230Z,0.90
2019-05-14T16:55:53.018Z,1.00
2019-05-14T16:58:23.823Z,0.83
2019-05-14T17:00:54.640Z,0.90
2019-05-14T17:03:25.456Z,1.10
2019-05-14T17:05:58.047Z,0.93
2019-05-14T17:08:28.685Z,0.87
2019-05-14T17:10:59.445Z,1.50
2019-05-14T17:13:30.241Z,0.87
2019-05-14T17:16:00.988Z,1.00
2019-05-14T17:18:31.774Z,1.10
2019-05-14T17:21:02.530Z,0.93
2019-05-14T17:23:33.347Z,0.97
2019-05-14T17:26:04.313Z,1.00
2019-05-14T17:28:37.606Z,1.10
2019-05-14T17:31:07.525Z,0.97
2019-05-14T17:33:39.399Z,0.90
2019-05-14T17:36:10.419Z,1.00
2019-05-14T17:38:41.205Z,1.03
2019-05-14T17:41:11.944Z,1.67
2019-05-14T17:43:42.758Z,0.87
2019-05-14T17:46:13.534Z,0.90
2019-05-14T17:48:44.309Z,0.80
2019-05-14T17:51:15.086Z,0.80
2019-05-14T17:53:47.872Z,0.80
2019-05-14T17:56:19.118Z,1.20
2019-05-14T17:58:50.636Z,1.20
2019-05-14T18:01:21.432Z,1.00
2019-05-14T18:03:52.255Z,1.00
2019-05-14T18:06:23.055Z,1.07
2019-05-14T18:08:53.851Z,0.97
2019-05-14T18:11:24.638Z,1.17
2019-05-14T18:13:55.434Z,1.03
2019-05-14T18:16:28.478Z,0.70
2019-05-14T18:18:58.847Z,0.90
2019-05-14T18:21:29.963Z,0.97
2019-05-14T18:24:00.801Z,1.00
2019-05-14T18:26:31.506Z,1.33
2019-05-14T18:29:04.505Z,1.10
2019-05-14T18:31:34.701Z,1.10
2019-05-14T18:34:05.475Z,1.07
2019-05-14T18:36:39.285Z,1.33
2019-05-14T18:39:09.235Z,1.10
2019-05-14T18:41:40.298Z,1.10
2019-05-14T18:44:11.101Z,1.00
2019-05-14T18:46:41.837Z,1.60
2019-05-14T18:49:12.604Z,1.50
2019-05-14T18:51:43.415Z,1.50
2019-05-14T18:54:14.153Z,1.23
2019-05-14T18:56:44.942Z,1.00
2019-05-14T18:59:20.935Z,0.97
2019-05-14T19:01:48.911Z,0.80
2019-05-14T19:04:20.482Z,0.97
2019-05-14T19:06:51.301Z,0.80
2019-05-14T19:09:22.067Z,0.90
2019-05-14T19:11:52.901Z,1.00
2019-05-14T19:14:23.668Z,0.83
2019-05-14T19:16:54.457Z,1.00
2019-05-14T19:19:25.210Z,1.13
2019-05-14T19:21:58.243Z,0.77
2019-05-14T19:24:28.769Z,1.10
2019-05-14T19:26:59.686Z,1.17
2019-05-14T19:29:30.486Z,0.93
2019-05-14T19:32:01.270Z,0.90
2019-05-14T19:34:32.035Z,1.00
2019-05-14T19:37:02.843Z,1.10
2019-05-14T19:39:33.631Z,1.00
2019-05-14T19:42:04.580Z,0.83
2019-05-14T19:44:35.353Z,0.93
2019-05-14T19:47:06.259Z,0.90
2019-05-14T19:49:38.207Z,1.20
2019-05-14T19:52:09.201Z,1.00
2019-05-14T19:54:39.960Z,1.00
2019-05-14T19:57:10.768Z,1.00
2019-05-14T19:59:41.520Z,1.00
2019-05-14T20:02:12.317Z,0.90
2019-05-14T20:04:43.073Z,1.17
2019-05-14T20:07:13.840Z,1.17
2019-05-14T20:09:44.665Z,1.00
2019-05-14T20:12:15.483Z,1.13
2019-05-14T20:14:46.218Z,1.00
2019-05-14T20:17:19.198Z,1.30
2019-05-14T20:19:49.547Z,1.10
2019-05-14T20:22:20.357Z,1.00
2019-05-14T20:24:51.154Z,1.10
2019-05-14T20:27:21.910Z,1.00
2019-05-14T20:29:52.677Z,1.00
2019-05-14T20:32:23.463Z,0.90
2019-05-14T20:34:54.228Z,0.90
2019-05-14T20:37:25.015Z,1.10
2019-05-14T20:39:55.741Z,1.30
2019-05-14T20:42:28.859Z,0.83
2019-05-14T20:44:58.895Z,1.20
2019-05-14T20:47:29.620Z,1.30
2019-05-14T20:50:00.299Z,0.87
2019-05-14T20:52:31.061Z,1.30
2019-05-14T20:55:01.729Z,1.10
2019-05-14T20:57:33.606Z,1.00
2019-05-14T21:00:04.772Z,1.30
2019-05-14T21:02:35.538Z,1.03
2019-05-14T21:05:13.015Z,1.20
2019-05-14T21:07:39.030Z,1.00
2019-05-14T21:10:10.097Z,1.10
2019-05-14T21:12:40.932Z,1.00
2019-05-14T21:15:11.785Z,1.00
2019-05-14T21:17:42.648Z,0.97
2019-05-14T21:20:13.413Z,1.10
2019-05-14T21:22:44.171Z,0.90
2019-05-14T21:25:15.345Z,1.03
2019-05-14T21:27:51.238Z,1.10
2019-05-14T21:30:18.936Z,1.23
2019-05-14T21:32:51.214Z,1.10
2019-05-14T21:35:21.990Z,1.10
2019-05-14T21:37:52.787Z,0.90
2019-05-14T21:40:23.553Z,1.10
2019-05-14T21:42:54.341Z,0.93
2019-05-14T21:45:25.074Z,1.00
2019-05-14T21:48:14.836Z,1.00
2019-05-14T21:50:45.591Z,1.10
2019-05-14T21:53:16.279Z,1.03
2019-05-14T21:55:47.865Z,1.00
2019-05-14T21:58:19.609Z,0.90
2019-05-14T22:00:53.789Z,1.00
2019-05-14T22:03:24.596Z,1.10
2019-05-14T22:05:55.281Z,1.00
2019-05-14T22:08:27.912Z,1.20
2019-05-14T22:10:58.680Z,1.10
2019-05-14T22:13:29.479Z,1.20
2019-05-14T22:16:00.217Z,1.10
2019-05-14T22:18:30.952Z,0.93
2019-05-14T22:21:01.750Z,1.17
2019-05-14T22:23:32.476Z,1.00
2019-05-14T22:26:03.273Z,1.17
2019-05-14T22:28:34.055Z,1.00
2019-05-14T22:31:08.860Z,1.07
2019-05-14T22:33:38.974Z,1.03
2019-05-14T22:36:09.858Z,1.07
2019-05-14T22:38:40.672Z,1.30
2019-05-14T22:41:11.753Z,1.00
2019-05-14T22:43:42.475Z,1.30
2019-05-14T22:46:13.202Z,1.00
2019-05-14T22:48:43.941Z,0.93
2019-05-14T22:51:14.756Z,1.00
2019-05-14T22:53:45.482Z,0.90
2019-05-14T22:56:16.971Z,1.10
2019-05-14T22:58:48.855Z,1.00
2019-05-14T23:01:19.771Z,0.90
2019-05-14T23:03:50.466Z,1.17
2019-05-14T23:06:22.598Z,1.07
2019-05-14T23:08:53.269Z,0.80
2019-05-14T23:11:23.964Z,1.20
2019-05-14T23:13:54.732Z,0.90
2019-05-14T23:16:34.373Z,1.27
2019-05-14T23:18:58.328Z,1.20
2019-05-14T23:21:29.172Z,1.00
2019-05-14T23:24:00.019Z,1.10
2019-05-14T23:26:30.675Z,1.30
2019-05-14T23:29:01.345Z,0.97
2019-05-14T23:31:32.097Z,1.10
2019-05-14T23:34:02.824Z,1.23
2019-05-14T23:36:33.692Z,0.90
2019-05-14T23:39:05.761Z,1.10
2019-05-14T23:41:38.330Z,1.50
2019-05-14T23:44:28.820Z,1.10
2019-05-14T23:46:59.562Z,0.83
2019-05-14T23:49:30.277Z,1.07
2019-05-14T23:52:01.005Z,1.30
2019-05-14T23:54:31.811Z,0.97
2019-05-14T23:57:02.547Z,1.40
2019-05-14T23:59:33.335Z,1.23
